createdAt,value
2022-09-11T00:02:03.722Z,0.57
2022-09-11T00:04:34.673Z,1.60
2022-09-11T00:07:03.893Z,1.80
2022-09-11T00:09:33.576Z,2.40
2022-09-11T00:12:04.557Z,1.38
2022-09-11T00:14:35.776Z,0.73
2022-09-11T00:17:06.243Z,0.80
2022-09-11T00:19:40.599Z,2.35
2022-09-11T00:22:12.916Z,1.25
2022-09-11T00:24:42.140Z,1.05
2022-09-11T00:27:10.797Z,1.10
2022-09-11T00:29:42.299Z,0.77
2022-09-11T00:32:13.992Z,1.55
2022-09-11T00:34:43.828Z,1.55
2022-09-11T00:37:13.225Z,1.77
2022-09-11T00:39:46.961Z,0.70
2022-09-11T00:42:18.734Z,1.00
2022-09-11T00:44:49.071Z,0.88
2022-09-11T00:47:22.252Z,0.75
2022-09-11T00:49:56.337Z,1.23
2022-09-11T00:52:38.325Z,0.68
2022-09-11T00:58:24.417Z,1.83
2022-09-11T01:00:58.114Z,0.80
2022-09-11T01:03:37.067Z,1.05
2022-09-11T01:06:12.319Z,0.60
2022-09-11T01:08:42.929Z,0.80
2022-09-11T01:11:44.713Z,1.77
2022-09-11T01:15:01.464Z,1.33
2022-09-11T01:18:09.247Z,0.52
2022-09-11T01:20:50.929Z,0.65
2022-09-11T01:27:50.957Z,0.60
2022-09-11T01:30:28.250Z,2.25
2022-09-11T01:33:42.207Z,1.27
2022-09-11T01:38:58.783Z,0.70
2022-09-11T01:42:19.130Z,0.68
2022-09-11T01:45:02.785Z,2.13
2022-09-11T01:47:37.385Z,0.90
2022-09-11T01:50:19.086Z,0.70
2022-09-11T01:52:58.725Z,0.90
2022-09-11T01:55:35.508Z,1.20
2022-09-11T01:58:20.034Z,1.45
2022-09-11T02:00:53.833Z,1.05
2022-09-11T02:03:39.325Z,0.75
2022-09-11T02:06:30.998Z,0.85
2022-09-11T02:09:03.631Z,1.02
2022-09-11T02:11:39.224Z,1.73
2022-09-11T02:14:22.913Z,1.58
2022-09-11T02:17:26.963Z,0.98
2022-09-11T02:22:34.281Z,0.60
2022-09-11T02:25:04.510Z,0.60
2022-09-11T02:27:38.547Z,0.52
2022-09-11T02:30:13.843Z,1.48
2022-09-11T02:32:47.346Z,0.55
2022-09-11T02:35:21.151Z,2.10
2022-09-11T02:38:16.669Z,0.80
2022-09-11T02:41:15.488Z,1.70
2022-09-11T02:44:11.114Z,1.67
2022-09-11T02:46:58.838Z,1.13
2022-09-11T02:49:39.480Z,1.67
2022-09-11T02:52:42.233Z,1.42
2022-09-11T02:55:20.841Z,0.70
2022-09-11T02:58:02.731Z,0.60
2022-09-11T03:00:44.235Z,0.93
2022-09-11T03:03:17.803Z,0.70
2022-09-11T03:05:50.391Z,2.92
2022-09-11T03:08:25.105Z,1.15
2022-09-11T03:10:55.815Z,1.80
2022-09-11T03:13:26.261Z,1.08
2022-09-11T03:15:55.900Z,1.40
2022-09-11T03:18:29.616Z,1.42
2022-09-11T03:20:59.114Z,1.33
2022-09-11T03:23:30.872Z,1.75
2022-09-11T03:26:02.402Z,1.55
2022-09-11T03:28:35.028Z,2.83
2022-09-11T03:31:11.692Z,1.33
2022-09-11T03:33:43.225Z,1.33
2022-09-11T03:36:12.847Z,1.30
2022-09-11T03:38:43.440Z,2.08
2022-09-11T03:41:12.162Z,2.75
2022-09-11T03:43:48.432Z,1.77
2022-09-11T03:46:20.806Z,1.27
2022-09-11T03:51:24.608Z,0.88
2022-09-11T03:53:55.555Z,0.70
2022-09-11T03:56:32.912Z,1.20
2022-09-11T03:59:03.635Z,2.47
2022-09-11T04:01:34.086Z,2.45
2022-09-11T04:04:04.759Z,1.73
2022-09-11T04:06:44.280Z,1.60
2022-09-11T04:09:14.989Z,2.42
2022-09-11T04:11:47.281Z,2.10
2022-09-11T04:14:34.280Z,2.63
2022-09-11T04:17:04.901Z,1.30
2022-09-11T04:19:34.521Z,2.42
2022-09-11T04:22:04.107Z,1.67
2022-09-11T04:24:41.734Z,2.53
2022-09-11T04:27:10.338Z,3.00
2022-09-11T04:29:40.976Z,2.03
2022-09-11T04:32:19.572Z,4.15
2022-09-11T04:34:49.228Z,1.30
2022-09-11T04:37:19.891Z,1.30
2022-09-11T04:39:49.478Z,1.58
2022-09-11T04:42:19.182Z,1.38
2022-09-11T04:44:48.648Z,1.10
2022-09-11T04:47:18.268Z,0.73
2022-09-11T04:49:48.907Z,0.90
2022-09-11T04:52:19.862Z,0.80
2022-09-11T04:54:50.100Z,1.30
2022-09-11T04:57:19.728Z,3.17
2022-09-11T04:59:52.355Z,1.20
2022-09-11T05:02:21.998Z,2.03
2022-09-11T05:04:55.611Z,1.02
2022-09-11T05:07:25.178Z,3.05
2022-09-11T05:09:59.070Z,1.45
2022-09-11T05:12:31.436Z,1.58
2022-09-11T05:15:00.049Z,2.30
2022-09-11T05:17:34.131Z,2.00
2022-09-11T05:20:06.662Z,2.03
2022-09-11T05:22:43.895Z,1.75
2022-09-11T05:25:14.495Z,1.30
2022-09-11T05:27:45.859Z,1.00
2022-09-11T05:30:15.796Z,1.48
2022-09-11T05:32:45.321Z,1.83
2022-09-11T05:35:14.929Z,2.20
2022-09-11T05:37:45.522Z,2.40
2022-09-11T05:40:14.253Z,3.67
2022-09-11T05:42:43.720Z,2.25
2022-09-11T05:45:12.363Z,2.60
2022-09-11T05:47:40.938Z,1.50
2022-09-11T05:50:12.465Z,3.47
2022-09-11T05:52:41.186Z,1.25
2022-09-11T05:55:10.765Z,1.00
2022-09-11T05:57:40.371Z,1.25
2022-09-11T06:00:12.032Z,2.25
2022-09-11T06:02:52.651Z,1.50
2022-09-11T06:05:21.231Z,1.83
2022-09-11T06:07:49.865Z,2.28
2022-09-11T06:10:19.478Z,2.80
2022-09-11T06:12:48.094Z,3.30
2022-09-11T06:15:36.256Z,5.10
2022-09-11T06:18:07.367Z,5.90
2022-09-11T06:20:36.059Z,4.60
2022-09-11T06:23:09.135Z,5.72
2022-09-11T06:25:40.199Z,8.23
2022-09-11T06:28:08.814Z,14.27
2022-09-11T06:30:36.460Z,5.30
2022-09-11T06:33:05.018Z,6.60
2022-09-11T06:35:36.143Z,9.63
2022-09-11T06:38:04.246Z,8.02
2022-09-11T06:40:32.833Z,7.93
2022-09-11T06:43:00.446Z,9.88
2022-09-11T06:45:30.111Z,6.03
2022-09-11T06:47:59.685Z,9.95
2022-09-11T06:50:33.952Z,4.38
2022-09-11T06:53:10.949Z,7.82
2022-09-11T06:55:47.570Z,4.78
2022-09-11T06:58:17.199Z,7.35
2022-09-11T07:00:45.818Z,6.53
2022-09-11T07:03:16.432Z,6.32
2022-09-11T07:05:50.005Z,9.68
2022-09-11T07:08:24.302Z,12.88
2022-09-11T07:10:56.271Z,10.98
2022-09-11T07:13:26.916Z,9.70
2022-09-11T07:16:09.634Z,9.57
2022-09-11T07:18:43.493Z,12.02
2022-09-11T07:21:22.839Z,11.77
2022-09-11T07:23:59.483Z,12.95
2022-09-11T07:26:32.125Z,12.15
2022-09-11T07:29:07.001Z,10.57
2022-09-11T07:31:40.410Z,10.80
2022-09-11T07:34:13.074Z,13.75
2022-09-11T07:36:41.777Z,13.77
2022-09-11T07:39:15.375Z,13.07
2022-09-11T07:41:57.006Z,18.27
2022-09-11T07:44:29.631Z,13.27
2022-09-11T07:46:59.233Z,11.77
2022-09-11T07:49:28.842Z,9.68
2022-09-11T07:51:56.438Z,11.05
2022-09-11T07:54:34.080Z,9.50
2022-09-11T07:57:02.699Z,9.82
2022-09-11T07:59:33.329Z,10.82
2022-09-11T08:02:02.998Z,12.07
2022-09-11T08:04:30.570Z,10.93
2022-09-11T08:06:59.167Z,13.20
2022-09-11T08:09:30.767Z,9.18
2022-09-11T08:12:02.401Z,9.32
2022-09-11T08:14:31.988Z,9.43
2022-09-11T08:17:06.659Z,10.40
2022-09-11T08:19:34.253Z,9.45
2022-09-11T08:22:02.853Z,9.52
2022-09-11T08:24:35.511Z,14.45
2022-09-11T08:27:07.090Z,10.25
2022-09-11T08:29:38.679Z,10.48
2022-09-11T08:32:06.503Z,11.00
2022-09-11T08:34:34.649Z,10.68
2022-09-11T08:37:01.720Z,9.82
2022-09-11T08:39:33.128Z,9.77
2022-09-11T08:42:17.743Z,9.18
2022-09-11T08:44:55.379Z,9.18
2022-09-11T08:47:52.101Z,10.95
2022-09-11T08:50:28.747Z,12.35
2022-09-11T08:53:00.335Z,25.67
2022-09-11T08:55:42.005Z,25.15
2022-09-11T08:58:29.681Z,18.25
2022-09-11T09:01:15.389Z,16.00
2022-09-11T09:03:54.992Z,10.40
2022-09-11T09:06:52.728Z,21.42
2022-09-11T09:09:57.450Z,24.85
2022-09-11T09:12:59.270Z,19.02
2022-09-11T11:34:47.084Z,8.30
2022-09-11T11:37:29.660Z,7.00
2022-09-11T11:40:34.452Z,7.78
2022-09-11T11:43:10.554Z,6.88
2022-09-11T11:45:42.750Z,7.70
2022-09-11T11:48:24.078Z,6.65
2022-09-11T11:50:55.979Z,8.10
2022-09-11T11:53:53.695Z,9.23
2022-09-11T11:56:31.204Z,9.48
2022-09-11T11:59:04.991Z,8.55
2022-09-11T12:01:49.808Z,7.03
2022-09-11T12:04:31.350Z,8.70
2022-09-11T12:07:00.980Z,7.90
2022-09-11T12:09:33.954Z,7.85
2022-09-11T12:12:07.210Z,8.48
2022-09-11T12:14:36.771Z,24.17
2022-09-11T12:17:31.500Z,7.07
2022-09-11T12:20:13.249Z,9.75
2022-09-11T12:22:42.753Z,7.65
2022-09-11T12:25:23.093Z,8.77
2022-09-11T12:28:21.162Z,6.72
2022-09-11T12:31:05.882Z,7.63
2022-09-11T12:33:48.534Z,7.53
2022-09-11T12:36:20.156Z,7.65
2022-09-11T12:38:55.779Z,7.50
2022-09-11T12:41:26.938Z,5.57
2022-09-11T12:43:56.009Z,5.68
2022-09-11T12:46:23.601Z,6.18
2022-09-11T12:49:21.605Z,5.22
2022-09-11T12:52:00.985Z,5.65
2022-09-11T12:54:32.637Z,5.28
2022-09-11T12:57:04.205Z,5.68
2022-09-11T12:59:45.861Z,5.50
2022-09-11T13:02:38.595Z,5.55
2022-09-11T13:05:17.236Z,6.38
2022-09-11T13:07:48.846Z,5.50
2022-09-11T13:10:31.513Z,5.60
2022-09-11T13:13:04.126Z,4.80
2022-09-11T13:15:37.801Z,4.18
2022-09-11T13:18:31.460Z,4.25
2022-09-11T13:21:04.774Z,4.50
2022-09-11T13:23:32.801Z,4.15
2022-09-11T13:26:02.279Z,3.00
2022-09-11T13:28:32.066Z,3.55
2022-09-11T13:31:06.567Z,3.15
2022-09-11T13:33:34.166Z,3.40
2022-09-11T13:36:03.244Z,3.22
2022-09-11T13:38:36.358Z,2.38
2022-09-11T13:41:14.020Z,2.80
2022-09-11T13:44:00.454Z,3.00
2022-09-11T13:46:31.993Z,3.20
2022-09-11T13:49:24.750Z,2.45
2022-09-11T13:51:52.304Z,2.20
2022-09-11T13:54:28.867Z,2.22
2022-09-11T13:56:56.938Z,2.50
2022-09-11T13:59:43.597Z,2.25
2022-09-11T14:02:31.338Z,2.45
2022-09-11T14:05:06.114Z,1.95
2022-09-11T14:07:41.083Z,4.82
2022-09-11T14:10:23.221Z,2.75
2022-09-11T14:12:59.862Z,5.40
2022-09-11T14:15:53.733Z,1.80
2022-09-11T14:18:55.294Z,2.65
2022-09-11T14:21:38.616Z,1.65
2022-09-11T14:24:25.666Z,1.75
2022-09-11T14:26:53.250Z,2.17
2022-09-11T14:29:33.900Z,1.90
2022-09-11T14:32:33.650Z,2.22
2022-09-11T14:35:10.280Z,1.90
2022-09-11T14:37:44.934Z,2.42
2022-09-11T14:40:19.701Z,2.15
2022-09-11T14:42:48.172Z,6.18
2022-09-11T14:45:21.795Z,1.73
2022-09-11T14:47:48.855Z,1.65
2022-09-11T14:50:15.968Z,1.60
2022-09-11T14:52:42.820Z,1.95
2022-09-11T14:55:18.374Z,1.60
2022-09-11T14:57:49.094Z,1.60
2022-09-11T15:00:17.721Z,1.80
2022-09-11T15:02:46.039Z,1.73
2022-09-11T15:05:19.413Z,2.22
2022-09-11T15:07:46.615Z,1.55
2022-09-11T15:10:15.847Z,1.55
2022-09-11T15:12:43.411Z,1.30
2022-09-11T15:15:11.956Z,1.63
2022-09-11T15:17:39.312Z,1.60
2022-09-11T15:20:09.442Z,2.22
2022-09-11T15:22:38.273Z,1.33
2022-09-11T15:25:06.438Z,2.03
2022-09-11T15:27:35.007Z,1.25
2022-09-11T15:30:01.938Z,2.72
2022-09-11T15:32:29.509Z,2.83
2022-09-11T15:34:56.787Z,3.83
2022-09-11T15:37:25.396Z,3.08
2022-09-11T15:39:54.067Z,3.20
2022-09-11T15:42:22.622Z,3.25
2022-09-11T15:44:51.201Z,3.15
2022-09-11T15:47:19.802Z,3.50
2022-09-11T15:49:49.403Z,3.05
2022-09-11T15:52:17.007Z,4.18
2022-09-11T15:54:46.615Z,3.80
2022-09-11T15:57:15.202Z,3.95
2022-09-11T15:59:43.835Z,3.55
2022-09-11T16:02:13.465Z,3.85
2022-09-11T16:04:40.396Z,4.35
2022-09-11T16:07:07.429Z,5.75
2022-09-11T16:09:34.605Z,3.72
2022-09-11T16:12:02.035Z,4.10
2022-09-11T16:14:34.287Z,3.80
2022-09-11T16:17:02.301Z,4.07
2022-09-11T16:19:30.502Z,4.45
2022-09-11T16:21:59.558Z,4.63
2022-09-11T16:24:28.892Z,4.82
2022-09-11T16:26:56.434Z,4.20
2022-09-11T16:29:43.969Z,4.78
2022-09-11T16:32:29.041Z,5.30
2022-09-11T16:34:58.425Z,3.83
2022-09-11T16:37:28.000Z,4.30
2022-09-11T16:39:54.917Z,6.55
2022-09-11T16:42:22.447Z,7.03
2022-09-11T16:44:50.438Z,3.70
2022-09-11T16:47:18.356Z,4.28
2022-09-11T16:50:05.869Z,3.47
2022-09-11T16:52:35.632Z,3.25
2022-09-11T16:55:05.237Z,3.70
2022-09-11T16:57:33.838Z,3.25
2022-09-11T17:00:02.489Z,3.65
2022-09-11T17:02:31.079Z,4.00
2022-09-11T17:04:58.669Z,3.55
2022-09-11T17:07:26.256Z,3.60
2022-09-11T17:09:53.847Z,3.90
2022-09-11T17:12:22.453Z,3.30
2022-09-11T17:14:51.053Z,3.47
2022-09-11T17:17:18.708Z,3.95
2022-09-11T17:19:47.258Z,4.00
2022-09-11T17:22:15.187Z,3.45
2022-09-11T17:24:41.976Z,3.30
2022-09-11T17:27:11.090Z,3.50
2022-09-11T17:29:43.776Z,3.40
2022-09-11T17:32:27.910Z,4.35
2022-09-11T17:34:56.965Z,5.05
2022-09-11T17:37:25.566Z,4.68
2022-09-11T17:39:53.215Z,4.00
2022-09-11T17:42:23.247Z,4.00
2022-09-11T17:44:50.350Z,4.40
2022-09-11T17:47:18.990Z,3.35
2022-09-11T17:49:47.587Z,4.32
2022-09-11T17:52:15.189Z,4.60
2022-09-11T17:54:43.854Z,4.85
2022-09-11T17:57:11.370Z,4.20
2022-09-11T17:59:39.982Z,4.80
2022-09-11T18:02:09.638Z,4.15
2022-09-11T18:04:38.436Z,4.35
2022-09-11T18:07:05.805Z,4.20
2022-09-11T18:09:33.426Z,4.90
2022-09-11T18:12:01.019Z,3.97
2022-09-11T18:14:28.589Z,4.95
2022-09-11T18:16:57.196Z,4.18
2022-09-11T18:19:24.795Z,3.83
2022-09-11T18:21:53.355Z,4.28
2022-09-11T18:24:22.020Z,3.80
2022-09-11T18:26:59.985Z,4.60
2022-09-11T18:29:30.597Z,4.85
2022-09-11T18:32:00.318Z,4.47
2022-09-11T18:34:28.915Z,3.75
2022-09-11T18:36:57.130Z,4.30
2022-09-11T18:39:25.744Z,3.80
2022-09-11T18:41:56.345Z,3.20
2022-09-11T18:44:25.954Z,4.50
2022-09-11T18:46:55.608Z,14.20
2022-09-11T18:49:24.184Z,4.82
2022-09-11T18:51:52.788Z,3.53
2022-09-11T18:54:23.401Z,3.60
2022-09-11T18:56:51.996Z,3.90
2022-09-11T18:59:22.349Z,3.78
2022-09-11T19:01:50.295Z,4.75
2022-09-11T19:04:17.793Z,5.32
2022-09-11T19:06:47.397Z,4.57
2022-09-11T19:09:15.013Z,4.72
2022-09-11T19:11:42.604Z,5.00
2022-09-11T19:14:12.940Z,4.65
2022-09-11T19:16:40.792Z,4.93
2022-09-11T19:19:09.441Z,6.20
2022-09-11T19:21:40.018Z,4.43
2022-09-11T19:24:08.630Z,5.10
2022-09-11T19:26:39.804Z,4.35
2022-09-11T19:29:08.962Z,5.18
2022-09-11T19:31:39.923Z,4.85
2022-09-11T19:34:10.294Z,4.15
2022-09-11T19:36:38.729Z,6.03
2022-09-11T19:39:07.363Z,4.80
2022-09-11T19:41:41.976Z,3.55
2022-09-11T19:44:15.599Z,6.03
2022-09-11T19:46:43.267Z,3.60
2022-09-11T19:49:11.848Z,4.88
2022-09-11T19:51:42.890Z,4.75
2022-09-11T19:54:13.551Z,4.55
2022-09-11T19:56:43.684Z,5.65
2022-09-11T19:59:13.731Z,4.15
2022-09-11T20:01:41.136Z,4.13
2022-09-11T20:04:10.505Z,5.10
2022-09-11T20:06:37.859Z,5.47
2022-09-11T20:09:30.544Z,7.03
2022-09-11T20:11:54.380Z,5.32
2022-09-11T20:14:21.982Z,7.68
2022-09-11T20:16:49.571Z,3.67
2022-09-11T20:19:19.174Z,4.22
2022-09-11T20:21:46.784Z,6.85
2022-09-11T20:24:16.375Z,5.10
2022-09-11T20:26:43.998Z,4.70
2022-09-11T20:29:15.475Z,5.53
2022-09-11T20:31:48.655Z,4.43
2022-09-11T20:34:20.233Z,5.45
2022-09-11T20:36:49.455Z,6.57
2022-09-11T20:39:18.076Z,6.05
2022-09-11T20:41:45.680Z,5.47
2022-09-11T20:44:14.274Z,6.22
2022-09-11T20:46:41.899Z,5.90
2022-09-11T20:49:11.488Z,5.55
2022-09-11T20:51:40.072Z,5.50
2022-09-11T20:54:07.665Z,6.85
2022-09-11T20:56:35.257Z,5.32
2022-09-11T20:59:03.902Z,5.50
2022-09-11T21:01:34.561Z,5.43
2022-09-11T21:04:04.090Z,5.70
2022-09-11T21:06:33.714Z,6.43
2022-09-11T21:09:08.596Z,5.82
2022-09-11T21:11:36.935Z,7.03
2022-09-11T21:14:05.522Z,8.40
2022-09-11T21:16:33.706Z,5.53
2022-09-11T21:19:01.967Z,5.13
2022-09-11T21:21:30.270Z,5.72
2022-09-11T21:24:00.083Z,6.28
2022-09-11T21:26:29.278Z,9.75
2022-09-11T21:28:58.200Z,5.40
2022-09-11T21:31:26.814Z,5.15
2022-09-11T21:33:55.611Z,5.20
2022-09-11T21:36:22.968Z,5.13
2022-09-11T21:38:51.575Z,5.57
2022-09-11T21:41:19.165Z,5.63
2022-09-11T21:43:46.668Z,5.88
2022-09-11T21:46:13.690Z,4.95
2022-09-11T21:48:41.963Z,5.97
2022-09-11T21:51:18.899Z,6.00
2022-09-11T21:53:47.138Z,5.45
2022-09-11T21:56:26.641Z,6.13
2022-09-11T21:58:54.172Z,7.38
2022-09-11T22:01:22.037Z,8.13
2022-09-11T22:03:49.768Z,6.30
2022-09-11T22:06:18.064Z,6.28
2022-09-11T22:08:47.867Z,5.82
2022-09-11T22:11:16.460Z,6.32
2022-09-11T22:13:43.585Z,7.20
2022-09-11T22:16:14.215Z,6.72
2022-09-11T22:18:42.284Z,5.95
2022-09-11T22:21:12.165Z,5.55
2022-09-11T22:23:39.622Z,6.15
2022-09-11T22:26:10.425Z,5.78
2022-09-11T22:28:38.640Z,6.65
2022-09-11T22:31:11.419Z,5.68
2022-09-11T22:33:42.059Z,5.93
2022-09-11T22:36:17.297Z,6.20
2022-09-11T22:38:44.623Z,6.35
2022-09-11T22:41:11.388Z,7.45
2022-09-11T22:43:41.147Z,6.60
2022-09-11T22:46:10.108Z,6.00
2022-09-11T22:48:38.732Z,5.93
2022-09-11T22:51:07.266Z,7.03
2022-09-11T22:53:34.939Z,6.93
2022-09-11T22:56:03.474Z,6.30
2022-09-11T22:58:31.079Z,6.63
2022-09-11T23:01:00.879Z,5.65
2022-09-11T23:03:28.279Z,6.00
2022-09-11T23:06:21.014Z,6.68
2022-09-11T23:08:50.630Z,6.50
2022-09-11T23:11:21.225Z,5.88
2022-09-11T23:13:49.829Z,6.00
2022-09-11T23:16:23.512Z,7.13
2022-09-11T23:18:56.102Z,5.93
2022-09-11T23:21:24.694Z,5.75
2022-09-11T23:23:57.414Z,6.15
2022-09-11T23:26:25.599Z,7.53
2022-09-11T23:28:53.803Z,5.65
2022-09-11T23:31:25.182Z,6.55
2022-09-11T23:33:55.737Z,6.20
2022-09-11T23:36:23.366Z,6.00
2022-09-11T23:38:51.938Z,7.93
2022-09-11T23:41:19.534Z,5.65
2022-09-11T23:43:48.118Z,6.10
2022-09-11T23:46:16.724Z,6.63
2022-09-11T23:48:45.441Z,5.25
2022-09-11T23:51:12.801Z,5.75
2022-09-11T23:53:43.878Z,5.25
2022-09-11T23:56:13.228Z,6.20
2022-09-11T23:58:41.808Z,6.53
